首页
METAR-TAF:

METAR-TAF

机场 :

奧爾德尼島,

纬度: 49-43N, 经度: 002-12W, 海拔: 71米

当前天气观测

该预报发布于12分钟前的06:50 UTC
风速6节,风向北转东北
温度 11°C
湿度 76%
气压 1007 hPa
能见度10公里或以上
少量云层高于2500英尺

METAR: EGJA 200650Z 02006KT 9999 FEW025 11/07 Q1007

时间: 08:02 (07:02 UTC)

预报

该预报发布于24分钟前的06:38 UTC
预报有效从20日的 07点(UTC)到 20日的 15点(UTC)
风速6节,风向北转东北
能见度10公里或以上
少量云层高于2200英尺
成为
从 20日的 11点(UTC)到 20日的 13点(UTC)
风速16节,风向北转东北

TAF: EGJA 200638Z 2007/2015 02006KT 9999 FEW022 BECMG 2011/2013 02016KT

超过4000个机场的气象观测和天气预报(METAR&TAF报告)。

可查询的气象台以黄色和红色小点在地图上表示。

将鼠标移到小点上方,可查看气象台名称。

然后点击查看天气观测和预报。

如需切换地图:点击带黑十字的绿色按钮放大地图;点击带横线的绿色按钮缩小地图;或者点击绿色箭头查看邻近地区的地图。


METAR-TAF: